1996 FLOSSY (1996057S12074)


On this page: IBTrACS data - Map and Plots - Positions - Intensities - Original source data

Summary

Start Feb 25
End Mar 6
Basin SI
LMI 115 kt
Sources jtwc_sh
reunion
neumann
In WMO? Yes
Previous storm 1996 MISSING (WP)
Previous in basin 1996 EDWIGE (SI)
Concurrent storms 1996 EDWIGE (SI)
1996 MISSING (WP)
1996 FLOSSY (SI)
1996 TD0228 (WP)
1996 ATU (SP)
Next in basin 1996 KIRSTY (SI)
Next storm 1996 TD0228 (WP)

top of page IBTrACS Data: File Access

top of page HURSAT Data: File Access

Image of storm

top of page Plots:

Map of storm track will not appear if FTP is down
Time series of cyclone Maximum Sustained Wind will not appear if FTP is down
Time series of cyclone Minimum Central Pressure will not appear if FTP is down

top of page Track Data:Position

jtwc_sh reunion neumann
Date Lat Lon Lat Lon Lat Lon
1996-02-25 18:00:00 -11.6 73.6
1996-02-26 00:00:00 -12.0 74.0 -11.7 73.4 -12.0 74.0
1996-02-26 06:00:00 -11.9 73.5 -11.7 73.8 -11.9 73.5
1996-02-26 12:00:00 -11.9 73.0 -11.7 73.7 -11.9 73.0
1996-02-26 18:00:00 -11.9 72.5 -11.7 73.5 -11.9 72.5
1996-02-27 00:00:00 -12.1 72.0 -12.0 73.0 -12.1 72.0
1996-02-27 06:00:00 -12.5 71.4 -12.8 72.0 -12.5 71.4
1996-02-27 12:00:00 -13.2 70.7 -13.7 71.1 -13.2 70.7
1996-02-27 18:00:00 -14.0 69.8 -14.3 70.2 -14.0 69.8
1996-02-28 00:00:00 -14.7 69.1 -14.8 69.2 -14.7 69.1
1996-02-28 06:00:00 -15.5 68.1 -15.5 68.1 -15.5 68.1
1996-02-28 12:00:00 -16.3 67.1 -16.2 67.3 -16.3 67.1
1996-02-28 18:00:00 -16.9 66.1 -16.9 66.2 -16.9 66.1
1996-02-29 00:00:00 -17.5 65.1 -17.6 65.1 -17.5 65.1
1996-02-29 06:00:00 -18.2 64.1 -18.3 64.1 -18.2 64.1
1996-02-29 12:00:00 -18.8 63.1 -19.0 63.1 -18.8 63.1
1996-02-29 18:00:00 -19.5 62.2 -19.6 62.2 -19.5 62.2
1996-03-01 00:00:00 -20.2 61.4 -20.3 61.2 -20.2 61.4
1996-03-01 06:00:00 -20.9 60.6 -21.1 60.4 -20.9 60.6
1996-03-01 12:00:00 -21.5 60.0 -21.8 59.8 -21.5 60.0
1996-03-01 18:00:00 -22.2 59.4 -22.4 59.4 -22.2 59.4
1996-03-02 00:00:00 -22.7 59.2 -22.9 59.2 -22.7 59.2
1996-03-02 06:00:00 -23.2 59.1 -23.3 59.2 -23.2 59.1
1996-03-02 12:00:00 -23.7 59.2 -23.8 59.3 -23.7 59.2
1996-03-02 18:00:00 -24.3 59.6 -24.3 59.6 -24.3 59.6
jtwc_sh reunion neumann
1996-03-03 00:00:00 -25.0 60.3 -24.7 60.0 -25.0 60.3
1996-03-03 06:00:00 -25.7 61.1 -25.4 61.0 -25.7 61.1
1996-03-03 12:00:00 -26.2 62.0 -26.1 62.1 -26.2 62.0
1996-03-03 18:00:00 -26.8 62.9 -26.6 63.1 -26.8 62.9
1996-03-04 00:00:00 -27.4 63.8 -27.3 64.3 -27.4 63.8
1996-03-04 06:00:00 -28.0 64.7 -28.2 65.1
1996-03-04 12:00:00 -28.6 65.5 -28.8 65.4
1996-03-04 18:00:00 -29.4 65.9
1996-03-05 00:00:00 -29.9 66.4
1996-03-05 06:00:00 -30.4 66.9
1996-03-05 12:00:00 -31.0 67.6
1996-03-05 18:00:00 -31.8 68.5
1996-03-06 00:00:00 -32.1 69.9

top of pageTrack Data:Intensity

jtwc_sh reunion neumann
Date Wind Pres Wind Pres Wind Pres
1996-02-25 18:00:00 20. 1003.
1996-02-26 00:00:00 20. 25. 1000. 20.
1996-02-26 06:00:00 20. 28. 998. 20.
1996-02-26 12:00:00 25. 28. 998. 25.
1996-02-26 18:00:00 25. 30. 995. 25.
1996-02-27 00:00:00 30. 30. 995. 30.
1996-02-27 06:00:00 35. 35. 992. 35.
1996-02-27 12:00:00 40. 40. 988. 40.
1996-02-27 18:00:00 55. 45. 985. 55.
1996-02-28 00:00:00 70. 50. 980. 70.
1996-02-28 06:00:00 85. 60. 970. 85.
1996-02-28 12:00:00 100. 70. 955. 100.
1996-02-28 18:00:00 115. 80. 945. 115.
1996-02-29 00:00:00 115. 80. 945. 115.
1996-02-29 06:00:00 110. 80. 945. 110.
1996-02-29 12:00:00 105. 80. 945. 105.
1996-02-29 18:00:00 100. 80. 945. 100.
1996-03-01 00:00:00 100. 80. 945. 100.
1996-03-01 06:00:00 100. 75. 950. 100.
1996-03-01 12:00:00 95. 65. 960. 95.
1996-03-01 18:00:00 90. 65. 960. 90.
1996-03-02 00:00:00 85. 70. 955. 85.
1996-03-02 06:00:00 75. 70. 955. 75.
1996-03-02 12:00:00 65. 70. 955. 65.
1996-03-02 18:00:00 60. 62. 965. 60.
jtwc_sh reunion neumann
1996-03-03 00:00:00 55. 55. 975. 55.
1996-03-03 06:00:00 50. 50. 980. 50.
1996-03-03 12:00:00 45. 50. 980. 45.
1996-03-03 18:00:00 40. 45. 985. 40.
1996-03-04 00:00:00 35. 45. 985. 35.
1996-03-04 06:00:00 35. 45. 985.
1996-03-04 12:00:00 35. 40. 988.
1996-03-04 18:00:00 35. 992.
1996-03-05 00:00:00
1996-03-05 06:00:00
1996-03-05 12:00:00
1996-03-05 18:00:00
1996-03-06 00:00:00

top of page Links to source data

Source Source file Format
jtwc_sh bsh171996.txt ATCF
reunion WMO-Best-Tracks.txt:Line=17389:flossy WMO (old format)
neumann tracks.sh:Storm=1053:FLOSSY:BSH171996:JTWC HURDAT